Airfield :
LOGIN :

Register | Disclaimer

   EN    FR    IT 

 










Legend :    VFR   Marginal VFR   IFR   Intensive IFR   Very Intensive IFR
Visi :
Ceiling :
>= 8 km
>= 3000ft
5 to 8 km
1000 to 3000 ft
1500m to 5 km
500 to 1000 ft
800 to 1500m
200 to 500 ft
< 800m
< 200 ft
Symbols :   Thunderstorms  Fog  Heavy snow  Heavy precipitations  Wind > 20 kt
SIGMETs :     Misc.  Thunderstorms  Icing  Turbulence  Mountain Waves  Volcanic Ashes






- Airport Elevation : 545 ft
- IATA code : PZY


LZPP - Piešťany

CURRENT METAR :
  • 050712Z 16006KT 7000 -RA FEW010 OVC020 15/13 Q0998 RERA

EXPIRED METARs :
  • 050700Z 18004KT 5000 RA BR FEW010 OVC015 15/14 Q0998
  • 050630Z 17004KT 7000 -RA OVC020 15/13 Q0998 RERA
  • 050600Z 15006KT 5000 RA BR BKN035 OVC040 15/13 Q0998
  • 050530Z 17004KT 9999 -RA SCT042 OVC050 15/13 Q0998
  • 050500Z 17006KT 9999 SCT040 BKN050 16/12 Q0997
  • 050430Z 16004KT 140V200 9999 SCT042 BKN095 17/12 Q0997

TAF TAF LZPP
Valid from the 05 at 06:00 until the 05 at 15:00 UTC


050500Z 0506/0515 16008KT 9999 -RA SCT040 BKN060
TEMPO 0509/0513 19015G25KT 6000 SHRA FEW030TCU BKN045



MET'MAP, your aeronautical weather chart ! - Copyright ORBIFLY December 2007 - Disclaimer

ORBIFLY MET'MAP TEAM :

Programming & Development : Alexandra Zaïnal
Concept & original design : Baudouin d'Aumeries
Assistance for programming : Marc-Olivier Méhu
Technical & hardware support : Manuel Goepfert

Contact : metmap@orbifly.com




SOURCES & CREDITS :

   NOAA